Time;durP1;ratioP1;P1;durP2;ratioP2;P2;SDS_P1;SDS_P2;PMS_P1;PMS_P2;Temp;Humidity;BMP_temperature;BMP_pressure;BME280_temperature;BME280_humidity;BME280_pressure;Samples;Min_cycle;Max_cycle;Signal;HPM_P1;HPM_P2
2022/10/22 00:01:58;;;;;;;14.68;3.55;;;16.00;83.70;;;;;;4992978;28;20034;-75
2022/10/22 00:04:24;;;;;;;12.00;3.80;;;15.90;83.70;;;;;;4990900;28;20037;-76
2022/10/22 00:06:50;;;;;;;14.00;3.33;;;15.90;83.80;;;;;;4991186;28;20084;-75
2022/10/22 00:09:16;;;;;;;12.35;3.83;;;15.90;83.80;;;;;;4990554;28;20439;-75
2022/10/22 00:11:42;;;;;;;12.63;3.00;;;16.00;83.70;;;;;;4990744;28;20768;-75
2022/10/22 00:14:08;;;;;;;12.13;3.55;;;16.00;83.70;;;;;;4990379;28;20029;-76
2022/10/22 00:16:33;;;;;;;12.32;3.33;;;16.00;83.70;;;;;;4992411;28;20121;-76
2022/10/22 00:18:59;;;;;;;15.50;3.80;;;16.00;83.70;;;;;;4993179;28;20034;-75
2022/10/22 00:21:27;;;;;;;13.40;3.53;;;16.00;83.60;;;;;;4975246;28;20046;-75
2022/10/22 00:23:54;;;;;;;18.70;3.55;;;16.00;83.50;;;;;;4992500;28;20035;-76
2022/10/22 00:26:20;;;;;;;10.50;3.42;;;16.00;83.30;;;;;;4974846;28;20145;-75
2022/10/22 00:28:45;;;;;;;11.30;3.25;;;16.00;83.30;;;;;;4977945;28;20045;-76
2022/10/22 00:31:11;;;;;;;15.27;3.70;;;16.00;83.30;;;;;;4992318;28;20057;-76
2022/10/22 00:33:37;;;;;;;14.05;3.92;;;16.00;83.50;;;;;;4995709;28;20458;-75
2022/10/22 00:36:03;;;;;;;13.50;3.33;;;15.90;83.50;;;;;;4995714;28;20030;-76
2022/10/22 00:38:28;;;;;;;10.20;3.55;;;15.90;83.50;;;;;;4996040;28;20030;-76
2022/10/22 00:40:54;;;;;;;11.48;3.00;;;15.90;83.60;;;;;;4994782;28;20038;-76
2022/10/22 00:43:20;;;;;;;15.25;3.30;;;15.80;83.70;;;;;;4992780;28;20076;-75
2022/10/22 00:45:46;;;;;;;11.60;3.50;;;15.80;83.60;;;;;;4994199;28;20117;-77
2022/10/22 00:48:24;;;;;;;12.85;3.22;;;15.70;83.90;;;;;;4996199;28;20054;-75
2022/10/22 00:50:58;;;;;;;13.35;3.70;;;15.70;84.20;;;;;;4995300;28;20046;-76
2022/10/22 00:53:48;;;;;;;14.20;3.25;;;15.60;84.20;;;;;;4995338;28;20385;-76
2022/10/22 00:56:14;;;;;;;12.30;4.28;;;15.60;84.40;;;;;;4994072;28;20049;-76
2022/10/22 00:58:45;;;;;;;12.93;3.50;;;15.70;84.20;;;;;;5001250;28;20046;-75
2022/10/22 01:01:17;;;;;;;11.65;3.60;;;15.60;84.40;;;;;;4980080;28;20038;-76
2022/10/22 01:03:43;;;;;;;13.40;3.55;;;15.60;84.50;;;;;;4997233;28;20113;-75
2022/10/22 01:06:13;;;;;;;12.02;3.80;;;15.60;84.70;;;;;;4999139;28;20057;-76
2022/10/22 01:08:55;;;;;;;11.23;3.50;;;15.50;84.50;;;;;;4981109;28;20066;-76
2022/10/22 01:11:26;;;;;;;12.15;3.50;;;15.50;84.70;;;;;;4991507;28;20038;-75
2022/10/22 01:14:20;;;;;;;13.95;3.83;;;15.50;84.80;;;;;;4991772;28;20091;-76
2022/10/22 01:17:00;;;;;;;14.43;3.97;;;15.40;84.90;;;;;;4993776;28;20033;-76
2022/10/22 01:20:00;;;;;;;12.40;3.45;;;15.50;84.90;;;;;;4993990;28;20110;-76
2022/10/22 01:22:42;;;;;;;15.32;4.18;;;15.50;84.90;;;;;;4994715;28;20057;-76
2022/10/22 01:25:15;;;;;;;11.45;3.45;;;15.40;85.00;;;;;;4993624;28;20407;-75
2022/10/22 01:28:00;;;;;;;10.07;3.63;;;15.30;85.10;;;;;;4978279;28;20474;-75
2022/10/22 01:30:26;;;;;;;9.85;3.35;;;15.40;85.10;;;;;;5000025;28;20037;-75
2022/10/22 01:32:58;;;;;;;10.52;3.50;;;15.30;85.10;;;;;;5003717;28;20025;-75
2022/10/22 01:35:29;;;;;;;11.98;3.15;;;15.30;85.30;;;;;;5001150;28;20030;-75
2022/10/22 01:38:00;;;;;;;13.32;4.45;;;15.20;85.40;;;;;;4994930;28;20466;-75
2022/10/22 01:40:27;;;;;;;14.15;3.85;;;15.20;85.70;;;;;;4993156;28;20698;-75
2022/10/22 01:43:05;;;;;;;12.43;3.75;;;15.20;85.60;;;;;;4977316;28;20466;-75
2022/10/22 01:45:37;;;;;;;13.48;3.42;;;15.20;85.70;;;;;;4991783;28;20474;-76
2022/10/22 01:48:02;;;;;;;11.68;3.20;;;15.20;85.60;;;;;;4998986;28;20030;-76
2022/10/22 01:50:46;;;;;;;10.75;3.30;;;15.20;85.60;;;;;;4994038;28;20049;-76
2022/10/22 01:53:22;;;;;;;13.13;3.35;;;15.20;85.60;;;;;;4993226;28;20049;-75
2022/10/22 01:56:15;;;;;;;8.85;3.00;;;15.20;85.60;;;;;;4995383;28;20021;-76
2022/10/22 01:58:45;;;;;;;14.02;4.72;;;15.10;85.60;;;;;;4993430;28;20466;-75
2022/10/22 02:01:36;;;;;;;11.40;3.75;;;15.10;85.80;;;;;;4991977;28;20087;-75
2022/10/22 02:04:33;;;;;;;15.23;3.65;;;15.10;85.80;;;;;;4976320;28;20148;-76
2022/10/22 02:07:05;;;;;;;17.50;3.95;;;15.10;85.90;;;;;;4995248;28;20776;-75
2022/10/22 02:09:31;;;;;;;10.75;3.20;;;15.10;85.90;;;;;;4991735;28;20034;-76
2022/10/22 02:11:59;;;;;;;14.60;3.80;;;15.10;85.90;;;;;;4992685;28;20034;-75
2022/10/22 02:14:28;;;;;;;14.02;3.78;;;15.00;85.90;;;;;;4980110;28;20103;-76
2022/10/22 02:16:55;;;;;;;15.18;4.10;;;15.10;86.00;;;;;;4994116;28;20548;-76
2022/10/22 02:19:46;;;;;;;10.10;3.25;;;15.00;86.00;;;;;;4994809;28;20069;-76
2022/10/22 02:22:12;;;;;;;13.00;4.10;;;15.10;86.20;;;;;;4992521;28;20444;-75
2022/10/22 02:24:38;;;;;;;13.23;3.38;;;15.10;86.00;;;;;;4992907;28;20044;-76
2022/10/22 02:27:32;;;;;;;16.10;4.20;;;15.10;86.10;;;;;;4992972;28;20068;-75
2022/10/22 02:30:05;;;;;;;13.50;4.05;;;15.10;85.90;;;;;;4990216;28;21092;-76
2022/10/22 02:32:58;;;;;;;12.95;3.53;;;15.10;85.70;;;;;;4995211;28;20072;-74
2022/10/22 02:35:26;;;;;;;8.65;3.15;;;15.20;85.80;;;;;;4991274;28;20049;-75
2022/10/22 02:37:54;;;;;;;14.23;3.50;;;15.20;85.60;;;;;;4994537;28;20093;-76
2022/10/22 02:40:20;;;;;;;14.23;3.92;;;15.30;85.50;;;;;;4973230;28;20062;-76
2022/10/22 02:42:48;;;;;;;10.38;3.17;;;15.30;85.40;;;;;;4989195;28;20047;-76
2022/10/22 02:45:15;;;;;;;13.52;3.53;;;15.20;85.30;;;;;;4988916;28;20277;-75
2022/10/22 02:47:41;;;;;;;10.85;3.42;;;15.30;85.30;;;;;;4994497;28;20109;-75
2022/10/22 02:50:07;;;;;;;13.95;3.38;;;15.30;85.10;;;;;;4991530;28;20048;-77
2022/10/22 02:52:32;;;;;;;11.27;4.15;;;15.20;85.20;;;;;;4994492;28;20053;-77
2022/10/22 02:54:58;;;;;;;11.02;3.00;;;15.20;85.20;;;;;;4991873;28;20064;-75
2022/10/22 02:57:24;;;;;;;14.55;3.53;;;15.20;85.20;;;;;;4991307;28;20040;-76
2022/10/22 02:59:49;;;;;;;11.50;3.28;;;15.20;85.20;;;;;;4976323;28;20086;-77
2022/10/22 03:02:15;;;;;;;9.98;3.00;;;15.10;85.40;;;;;;4993427;28;20064;-76
2022/10/22 03:04:41;;;;;;;11.82;3.92;;;15.10;85.50;;;;;;4991933;28;20038;-77
2022/10/22 03:07:06;;;;;;;14.13;3.58;;;15.20;85.40;;;;;;4995139;28;20563;-76
2022/10/22 03:09:32;;;;;;;11.82;3.65;;;15.10;85.40;;;;;;4978695;28;20075;-76
2022/10/22 03:11:57;;;;;;;12.50;3.80;;;15.10;85.40;;;;;;4992889;28;20030;-76
2022/10/22 03:14:23;;;;;;;15.95;3.90;;;15.20;85.30;;;;;;4977029;28;20125;-75
2022/10/22 03:16:49;;;;;;;13.20;3.65;;;15.20;85.20;;;;;;4993282;28;20066;-75
2022/10/22 03:19:15;;;;;;;17.10;3.60;;;15.20;85.20;;;;;;4987508;28;20048;-76
2022/10/22 03:21:43;;;;;;;10.52;3.65;;;15.10;85.10;;;;;;4992263;28;20466;-75
2022/10/22 03:24:13;;;;;;;15.38;3.45;;;15.10;85.20;;;;;;4992128;28;20032;-74
2022/10/22 03:26:40;;;;;;;10.57;3.15;;;15.10;85.20;;;;;;4994426;28;20050;-74
2022/10/22 03:29:07;;;;;;;12.50;3.47;;;15.10;85.30;;;;;;4992107;28;20038;-75
2022/10/22 03:31:32;;;;;;;17.80;4.00;;;15.10;85.40;;;;;;4992721;28;20386;-75
2022/10/22 03:33:58;;;;;;;11.77;3.17;;;15.10;85.50;;;;;;4993644;28;20112;-75
2022/10/22 03:36:24;;;;;;;11.80;3.90;;;15.10;85.40;;;;;;4992932;28;20030;-75
2022/10/22 03:38:50;;;;;;;14.07;3.70;;;15.10;85.40;;;;;;4991968;28;20037;-75
2022/10/22 03:41:16;;;;;;;12.20;3.80;;;15.10;85.30;;;;;;4998520;28;20042;-75
2022/10/22 03:43:41;;;;;;;16.58;3.90;;;15.10;85.20;;;;;;4977628;28;20200;-74
2022/10/22 03:46:07;;;;;;;8.48;3.00;;;15.10;85.20;;;;;;4993470;28;20033;-77
2022/10/22 03:48:33;;;;;;;14.48;3.53;;;15.10;85.20;;;;;;4993045;28;20116;-74
2022/10/22 03:50:58;;;;;;;11.75;3.72;;;15.10;85.10;;;;;;4992803;28;20577;-73
2022/10/22 03:53:24;;;;;;;12.20;3.67;;;15.10;85.10;;;;;;4992949;28;20029;-74
2022/10/22 03:55:50;;;;;;;12.60;3.60;;;15.10;85.10;;;;;;4993966;28;20034;-75
2022/10/22 03:58:15;;;;;;;15.57;3.78;;;15.10;85.20;;;;;;4990299;28;20034;-76
2022/10/22 04:00:41;;;;;;;14.90;3.30;;;15.00;85.30;;;;;;4993019;28;20061;-76
2022/10/22 04:03:06;;;;;;;15.32;3.22;;;15.00;85.40;;;;;;4993994;28;20388;-75
2022/10/22 04:05:32;;;;;;;15.07;3.72;;;14.90;85.50;;;;;;4996074;28;20057;-77
2022/10/22 04:07:58;;;;;;;13.90;3.30;;;14.90;85.60;;;;;;4996715;28;20097;-75
2022/10/22 04:10:24;;;;;;;16.90;3.85;;;14.90;85.70;;;;;;4997033;28;20056;-75
2022/10/22 04:12:50;;;;;;;13.88;3.40;;;14.80;85.80;;;;;;4994454;28;20046;-75
2022/10/22 04:15:16;;;;;;;18.65;4.10;;;14.80;86.00;;;;;;5000933;28;20400;-75
2022/10/22 04:17:41;;;;;;;12.05;3.47;;;14.80;85.90;;;;;;4986873;28;20030;-75
2022/10/22 04:20:08;;;;;;;14.88;3.88;;;14.80;85.90;;;;;;4992259;28;20486;-74
2022/10/22 04:22:34;;;;;;;15.65;3.53;;;14.80;85.80;;;;;;4996897;28;20038;-75
2022/10/22 04:25:00;;;;;;;13.00;3.40;;;14.80;86.00;;;;;;4995495;28;20420;-75
2022/10/22 04:27:30;;;;;;;11.45;3.22;;;14.70;86.10;;;;;;4993364;28;20282;-75
2022/10/22 04:29:55;;;;;;;10.43;3.10;;;14.70;86.20;;;;;;4996436;28;20575;-75
2022/10/22 04:32:21;;;;;;;11.27;3.38;;;14.70;86.20;;;;;;4995002;28;20053;-76
2022/10/22 04:34:46;;;;;;;13.00;2.95;;;14.70;86.30;;;;;;4977468;28;20041;-75
2022/10/22 04:37:12;;;;;;;13.13;4.00;;;14.60;86.20;;;;;;4977245;28;20038;-74
2022/10/22 04:39:38;;;;;;;16.85;3.40;;;14.70;86.30;;;;;;5004082;28;20832;-75
2022/10/22 04:42:03;;;;;;;11.63;3.53;;;14.60;86.30;;;;;;5000537;28;20030;-74
2022/10/22 04:44:29;;;;;;;12.10;3.78;;;14.60;86.40;;;;;;4994544;28;20022;-76
2022/10/22 04:46:55;;;;;;;11.20;3.30;;;14.60;86.40;;;;;;4995300;28;20100;-74
2022/10/22 04:49:20;;;;;;;14.75;3.75;;;14.60;86.30;;;;;;4994155;28;20175;-75
2022/10/22 04:51:46;;;;;;;10.00;3.10;;;14.60;86.40;;;;;;4994942;28;20492;-75
2022/10/22 04:54:11;;;;;;;10.95;2.92;;;14.60;86.50;;;;;;4995987;28;20040;-74
2022/10/22 04:56:37;;;;;;;14.40;3.85;;;14.60;86.40;;;;;;4979267;28;20110;-75
2022/10/22 04:59:06;;;;;;;14.70;4.35;;;14.60;86.40;;;;;;4995880;28;20140;-74
2022/10/22 05:01:38;;;;;;;14.40;3.42;;;14.60;86.40;;;;;;4995852;28;20038;-74
2022/10/22 05:04:06;;;;;;;15.25;3.47;;;14.60;86.50;;;;;;4994436;28;20042;-75
2022/10/22 05:06:34;;;;;;;13.98;3.78;;;14.60;86.50;;;;;;4995665;28;20046;-74
2022/10/22 05:09:04;;;;;;;12.40;3.20;;;14.60;86.50;;;;;;5000099;28;20060;-75
2022/10/22 05:11:35;;;;;;;16.23;3.42;;;14.70;86.50;;;;;;4981997;28;20062;-74
2022/10/22 05:14:04;;;;;;;14.30;3.10;;;14.80;86.40;;;;;;4997968;28;20042;-74
2022/10/22 05:16:30;;;;;;;10.48;3.17;;;14.90;86.20;;;;;;4992184;28;20489;-77
2022/10/22 05:18:58;;;;;;;12.15;3.10;;;15.00;86.10;;;;;;4977254;28;20529;-76
2022/10/22 05:21:24;;;;;;;17.02;3.40;;;15.00;85.70;;;;;;4988596;28;20034;-76
2022/10/22 05:23:50;;;;;;;11.70;2.85;;;15.10;85.60;;;;;;4991421;28;20428;-78
2022/10/22 05:26:18;;;;;;;15.27;3.10;;;15.10;85.60;;;;;;4992562;28;20050;-75
2022/10/22 05:28:45;;;;;;;13.05;3.47;;;15.10;85.40;;;;;;4992862;28;20050;-74
2022/10/22 05:31:12;;;;;;;14.43;3.17;;;15.10;85.30;;;;;;4992519;28;20413;-77
2022/10/22 05:33:38;;;;;;;12.63;2.55;;;15.10;85.20;;;;;;4993544;28;20029;-76
2022/10/22 05:36:06;;;;;;;12.30;3.63;;;15.20;85.00;;;;;;4993165;28;20112;-76
2022/10/22 05:38:33;;;;;;;12.20;3.00;;;15.20;84.90;;;;;;4995022;28;20474;-76
2022/10/22 05:41:00;;;;;;;12.93;4.03;;;15.30;84.90;;;;;;4979110;28;20038;-75
2022/10/22 05:43:26;;;;;;;15.20;3.45;;;15.20;84.90;;;;;;4994458;28;20489;-75
2022/10/22 05:45:52;;;;;;;11.95;2.67;;;15.20;84.90;;;;;;4996679;28;20521;-77
2022/10/22 05:48:17;;;;;;;14.13;2.85;;;15.30;84.90;;;;;;4995892;28;20232;-75
2022/10/22 05:50:45;;;;;;;10.77;2.63;;;15.30;84.80;;;;;;4984505;28;20060;-77
2022/10/22 05:53:11;;;;;;;11.90;3.03;;;15.30;84.70;;;;;;4993599;28;20088;-76
2022/10/22 05:55:39;;;;;;;13.02;3.30;;;15.40;84.60;;;;;;4975789;28;20034;-75
2022/10/22 05:58:05;;;;;;;13.02;3.35;;;15.30;84.50;;;;;;4992627;28;20038;-76
2022/10/22 06:00:33;;;;;;;11.90;3.08;;;15.40;84.50;;;;;;4991622;28;20033;-76
2022/10/22 06:02:58;;;;;;;12.30;3.20;;;15.40;84.40;;;;;;4994189;28;20018;-75
2022/10/22 06:05:24;;;;;;;12.05;2.90;;;15.40;84.50;;;;;;4973620;28;20386;-76
2022/10/22 06:07:50;;;;;;;16.48;4.10;;;15.40;84.50;;;;;;4999078;28;20026;-77
2022/10/22 06:10:19;;;;;;;10.05;2.65;;;15.40;84.50;;;;;;4994135;28;20034;-74
2022/10/22 06:12:48;;;;;;;11.90;3.22;;;15.40;84.40;;;;;;4990027;28;20030;-74
2022/10/22 06:15:17;;;;;;;10.30;2.70;;;15.40;84.30;;;;;;4988092;28;21510;-75
2022/10/22 06:17:46;;;;;;;12.35;3.00;;;15.50;84.30;;;;;;4989661;28;20053;-75
2022/10/22 06:20:13;;;;;;;11.48;3.00;;;15.40;84.20;;;;;;4975245;28;20049;-75
2022/10/22 06:22:39;;;;;;;12.25;3.33;;;15.50;84.30;;;;;;4987621;28;20930;-76
2022/10/22 06:25:07;;;;;;;12.85;3.30;;;15.50;84.30;;;;;;4988206;28;20045;-75
2022/10/22 06:27:33;;;;;;;11.43;2.72;;;15.50;84.30;;;;;;4990302;28;20046;-75
2022/10/22 06:29:59;;;;;;;13.27;2.95;;;15.50;84.20;;;;;;4973288;28;20481;-76
2022/10/22 06:32:24;;;;;;;11.55;3.10;;;15.50;84.30;;;;;;4978357;28;20556;-75
2022/10/22 06:34:50;;;;;;;12.10;2.75;;;15.50;84.30;;;;;;4987131;28;20466;-75
2022/10/22 06:37:16;;;;;;;12.38;3.33;;;15.50;84.20;;;;;;4990197;28;20472;-74
2022/10/22 06:39:42;;;;;;;12.07;3.17;;;15.50;84.20;;;;;;4989568;28;20034;-75
2022/10/22 06:42:07;;;;;;;10.10;2.95;;;15.60;84.10;;;;;;4975673;28;20038;-76
2022/10/22 06:44:33;;;;;;;14.18;3.40;;;15.60;84.10;;;;;;4998003;28;20026;-76
2022/10/22 06:46:59;;;;;;;11.13;2.97;;;15.60;83.90;;;;;;4989372;28;20038;-77
2022/10/22 06:49:24;;;;;;;9.20;2.92;;;15.60;83.80;;;;;;4990535;28;20050;-75
2022/10/22 06:51:52;;;;;;;16.83;3.75;;;15.60;83.70;;;;;;4992124;28;20356;-74
2022/10/22 06:54:18;;;;;;;10.68;2.50;;;15.60;83.60;;;;;;4987298;28;20074;-76
2022/10/22 06:56:44;;;;;;;12.05;2.70;;;15.60;83.50;;;;;;4998035;28;20026;-75
2022/10/22 06:59:10;;;;;;;9.70;3.58;;;15.60;83.70;;;;;;4975713;28;20069;-76
2022/10/22 07:01:36;;;;;;;14.93;3.55;;;15.60;83.60;;;;;;4990809;28;20050;-76
2022/10/22 07:04:02;;;;;;;13.38;3.35;;;15.50;83.80;;;;;;4992916;28;20029;-76
2022/10/22 07:06:28;;;;;;;12.75;3.25;;;15.50;83.90;;;;;;4990569;28;20660;-76
2022/10/22 07:08:56;;;;;;;11.38;2.60;;;15.50;84.00;;;;;;4990546;28;20076;-75
2022/10/22 07:11:27;;;;;;;14.77;3.10;;;15.50;84.20;;;;;;4991043;28;20058;-76
2022/10/22 07:13:55;;;;;;;11.73;2.83;;;15.50;84.10;;;;;;4994126;28;20853;-76
2022/10/22 07:16:20;;;;;;;12.70;3.05;;;15.60;83.90;;;;;;4987723;28;20351;-76
2022/10/22 07:18:46;;;;;;;12.85;3.47;;;15.60;83.90;;;;;;4986543;28;20461;-76
2022/10/22 07:21:15;;;;;;;13.90;3.28;;;15.60;83.70;;;;;;4986560;28;20081;-76
2022/10/22 07:23:40;;;;;;;15.80;2.95;;;15.70;83.60;;;;;;4985497;28;20469;-76
2022/10/22 07:26:07;;;;;;;11.90;3.00;;;15.70;83.40;;;;;;4983429;28;20084;-75
2022/10/22 07:28:35;;;;;;;12.90;2.88;;;15.60;83.50;;;;;;4992870;28;20489;-77
2022/10/22 07:31:01;;;;;;;11.07;3.00;;;15.60;83.50;;;;;;4986482;28;20561;-75
2022/10/22 07:33:27;;;;;;;11.20;3.28;;;15.60;83.80;;;;;;4984909;28;20332;-75
2022/10/22 07:35:58;;;;;;;9.98;2.85;;;15.60;83.80;;;;;;4983669;28;20404;-77
2022/10/22 07:38:24;;;;;;;14.63;3.35;;;15.60;83.70;;;;;;4980805;28;20026;-77
2022/10/22 07:40:50;;;;;;;14.07;2.95;;;15.60;83.70;;;;;;4988768;28;20480;-75
2022/10/22 07:43:16;;;;;;;13.25;3.83;;;15.60;83.70;;;;;;4985909;28;20328;-75
2022/10/22 07:45:41;;;;;;;11.73;3.10;;;15.70;83.80;;;;;;4987339;28;20076;-76
2022/10/22 07:48:07;;;;;;;11.35;2.92;;;15.70;83.60;;;;;;4987719;28;20029;-76
2022/10/22 07:50:32;;;;;;;13.55;2.95;;;15.70;83.70;;;;;;4987774;28;20061;-76
2022/10/22 07:52:58;;;;;;;12.25;3.30;;;15.80;83.70;;;;;;4987838;28;20053;-75
2022/10/22 07:55:24;;;;;;;12.10;3.60;;;15.80;83.60;;;;;;4986303;28;20022;-74
2022/10/22 07:57:50;;;;;;;12.73;3.42;;;15.90;83.30;;;;;;4972666;28;20034;-77
2022/10/22 08:00:16;;;;;;;12.65;2.92;;;16.10;83.10;;;;;;4987233;28;20038;-76
2022/10/22 08:02:41;;;;;;;10.27;3.15;;;16.10;82.60;;;;;;4990677;28;20573;-77
2022/10/22 08:05:08;;;;;;;13.43;3.10;;;16.20;82.50;;;;;;4986523;28;20310;-74
2022/10/22 08:07:33;;;;;;;13.70;4.22;;;16.30;82.20;;;;;;4989731;28;20069;-75
2022/10/22 08:09:59;;;;;;;16.33;3.72;;;16.30;82.00;;;;;;4989607;28;20050;-75
2022/10/22 08:12:24;;;;;;;11.52;3.60;;;16.40;81.90;;;;;;4990487;28;20449;-74
2022/10/22 08:14:50;;;;;;;18.33;3.42;;;16.40;82.00;;;;;;4985883;28;20416;-75
2022/10/22 08:17:16;;;;;;;10.68;2.83;;;16.50;82.00;;;;;;4985322;28;20291;-75
2022/10/22 08:19:41;;;;;;;14.38;3.13;;;16.50;82.30;;;;;;4987649;28;20402;-75
2022/10/22 08:22:07;;;;;;;14.70;3.25;;;16.40;82.80;;;;;;4988334;28;20052;-75
2022/10/22 08:24:33;;;;;;;11.57;3.22;;;16.40;82.70;;;;;;4987318;28;20454;-75
2022/10/22 08:26:58;;;;;;;11.63;3.30;;;16.60;82.90;;;;;;4973273;28;20100;-75
2022/10/22 08:29:25;;;;;;;10.50;3.15;;;16.60;82.90;;;;;;4988650;28;20100;-74
2022/10/22 08:31:52;;;;;;;15.10;3.90;;;16.90;82.50;;;;;;4988523;28;20041;-76
2022/10/22 08:34:18;;;;;;;14.50;3.55;;;17.10;81.60;;;;;;4987976;28;20042;-76
2022/10/22 08:36:44;;;;;;;15.43;4.05;;;17.10;80.80;;;;;;4988431;28;20453;-74
2022/10/22 08:39:10;;;;;;;11.90;3.58;;;17.10;80.50;;;;;;4989287;28;20137;-76
2022/10/22 08:42:02;;;;;;;13.85;3.55;;;17.10;80.40;;;;;;4989905;28;20394;-76
2022/10/22 08:44:50;;;;;;;15.25;3.70;;;17.30;79.90;;;;;;4992358;28;20041;-75
2022/10/22 08:47:35;;;;;;;10.65;3.17;;;17.60;79.50;;;;;;4987053;28;20050;-75
2022/10/22 08:50:01;;;;;;;11.80;2.95;;;17.80;79.40;;;;;;4984492;28;20053;-75
2022/10/22 08:52:27;;;;;;;13.70;3.33;;;17.90;78.00;;;;;;4988403;28;20469;-74
2022/10/22 08:54:56;;;;;;;13.13;3.28;;;18.10;77.70;;;;;;4988593;28;20045;-75
2022/10/22 08:57:38;;;;;;;11.85;3.40;;;18.40;76.60;;;;;;4989704;28;20044;-78
2022/10/22 09:00:41;;;;;;;10.85;3.10;;;18.50;75.40;;;;;;4986244;28;20072;-74
2022/10/22 09:03:18;;;;;;;14.63;3.45;;;18.50;75.50;;;;;;4995721;28;20844;-76
2022/10/22 09:05:50;;;;;;;11.07;3.75;;;18.60;75.40;;;;;;4996546;28;20072;-76
2022/10/22 09:08:18;;;;;;;12.85;3.00;;;18.60;75.40;;;;;;4996739;28;20034;-75
2022/10/22 09:10:52;;;;;;;12.80;3.65;;;18.80;75.40;;;;;;5004879;28;20042;-77
2022/10/22 09:13:20;;;;;;;20.90;3.25;;;19.00;73.50;;;;;;4999456;28;20243;-76
2022/10/22 09:15:57;;;;;;;13.07;2.90;;;18.70;72.70;;;;;;4973600;28;20066;-77
2022/10/22 09:18:40;;;;;;;13.80;3.67;;;18.60;73.20;;;;;;4989975;28;20074;-77
2022/10/22 09:21:33;;;;;;;12.05;2.88;;;18.40;74.70;;;;;;4983026;28;20041;-76
2022/10/22 09:24:11;;;;;;;14.88;3.72;;;18.20;75.40;;;;;;4987687;28;20048;-79
2022/10/22 09:26:39;;;;;;;13.70;2.92;;;18.30;75.00;;;;;;4983046;28;20021;-74
2022/10/22 09:29:05;;;;;;;13.00;3.58;;;18.40;74.90;;;;;;4982614;28;20104;-76
2022/10/22 09:31:33;;;;;;;13.45;2.75;;;18.60;74.90;;;;;;4985017;28;20046;-76
2022/10/22 09:34:04;;;;;;;12.70;3.20;;;18.70;73.60;;;;;;4971748;28;20046;-79
2022/10/22 09:36:31;;;;;;;11.80;2.50;;;18.60;73.30;;;;;;4985875;28;20036;-76
2022/10/22 09:38:56;;;;;;;20.80;3.20;;;18.50;73.50;;;;;;4969948;28;20034;-75
2022/10/22 09:41:28;;;;;;;11.70;3.60;;;18.60;74.30;;;;;;4983859;28;20534;-74
2022/10/22 09:43:54;;;;;;;14.88;2.90;;;18.90;74.10;;;;;;4985219;28;20564;-74
2022/10/22 09:46:22;;;;;;;13.65;3.92;;;18.80;72.90;;;;;;4986672;28;20066;-74
2022/10/22 09:48:58;;;;;;;12.45;2.95;;;18.80;73.30;;;;;;4991348;28;20049;-74
2022/10/22 09:51:38;;;;;;;11.93;3.15;;;19.00;73.00;;;;;;5001872;28;20049;-76
2022/10/22 09:54:15;;;;;;;14.13;3.33;;;18.90;73.10;;;;;;4993356;28;20398;-78
2022/10/22 09:56:42;;;;;;;12.13;2.50;;;19.10;72.20;;;;;;4985544;28;20847;-77
2022/10/22 09:59:26;;;;;;;11.52;2.78;;;19.20;72.30;;;;;;4985035;28;20037;-78
2022/10/22 10:02:08;;;;;;;10.93;2.83;;;19.30;71.40;;;;;;5004945;28;20046;-77
2022/10/22 10:04:40;;;;;;;9.18;2.45;;;19.10;71.70;;;;;;4991821;28;20038;-77
2022/10/22 10:07:15;;;;;;;14.05;2.85;;;19.20;71.90;;;;;;4984278;28;20068;-78
2022/10/22 10:09:41;;;;;;;12.95;2.90;;;19.30;70.90;;;;;;4985392;28;20474;-79
2022/10/22 10:12:25;;;;;;;12.18;3.50;;;19.20;71.10;;;;;;4984689;28;20050;-76
2022/10/22 10:15:03;;;;;;;11.10;2.97;;;19.30;71.90;;;;;;4986380;28;20490;-79
2022/10/22 10:17:50;;;;;;;16.00;3.30;;;19.40;71.10;;;;;;4985987;28;20042;-79
2022/10/22 10:20:39;;;;;;;8.70;2.65;;;19.40;70.90;;;;;;4983587;28;20042;-79
2022/10/22 10:23:49;;;;;;;15.38;3.25;;;19.50;70.50;;;;;;4982940;28;20033;-76
2022/10/22 10:26:21;;;;;;;13.15;2.88;;;19.50;70.40;;;;;;4981580;28;20042;-77
2022/10/22 10:29:28;;;;;;;12.50;2.85;;;19.60;69.50;;;;;;4984324;28;20049;-78
2022/10/22 10:32:35;;;;;;;11.88;3.33;;;19.50;70.40;;;;;;4905531;28;20046;-78
2022/10/22 10:35:28;;;;;;;12.95;3.63;;;19.80;70.30;;;;;;4981667;28;20133;-77
2022/10/22 10:38:08;;;;;;;14.73;3.50;;;19.70;69.40;;;;;;4986153;28;20038;-77
2022/10/22 10:40:50;;;;;;;9.93;3.08;;;20.00;69.50;;;;;;4976207;28;20155;-76
2022/10/22 10:43:45;;;;;;;12.30;3.22;;;20.10;69.00;;;;;;4972896;28;20034;-77
2022/10/22 10:46:22;;;;;;;10.50;2.63;;;20.30;68.30;;;;;;4972831;28;20099;-74
2022/10/22 10:49:13;;;;;;;10.45;3.00;;;20.30;67.20;;;;;;4971031;28;20772;-74
2022/10/22 10:51:50;;;;;;;12.90;2.72;;;20.50;67.40;;;;;;4971371;28;20152;-77
2022/10/22 10:54:26;;;;;;;10.02;2.72;;;20.60;67.30;;;;;;4970472;28;20340;-76
2022/10/22 10:56:56;;;;;;;11.00;2.88;;;20.90;66.60;;;;;;4973595;28;20116;-77
2022/10/22 10:59:48;;;;;;;11.40;2.65;;;21.10;65.80;;;;;;4972669;28;20478;-76
2022/10/22 11:02:29;;;;;;;11.25;2.78;;;21.20;63.80;;;;;;4973875;28;20452;-77
2022/10/22 11:05:13;;;;;;;13.27;3.20;;;20.70;63.70;;;;;;4974034;28;20044;-76
2022/10/22 11:07:48;;;;;;;9.60;2.25;;;20.20;64.70;;;;;;4956498;28;20478;-74
2022/10/22 11:10:28;;;;;;;11.40;3.08;;;19.80;66.40;;;;;;4971507;28;20348;-77
2022/10/22 11:13:05;;;;;;;11.27;2.70;;;19.80;66.50;;;;;;4971573;28;20568;-76
2022/10/22 11:15:36;;;;;;;11.70;2.45;;;19.90;66.60;;;;;;4953603;28;20221;-75
2022/10/22 11:18:17;;;;;;;12.02;2.97;;;19.90;66.10;;;;;;4956479;28;20035;-75
2022/10/22 11:20:54;;;;;;;12.35;2.45;;;19.70;66.50;;;;;;4956934;28;20030;-74
2022/10/22 11:23:31;;;;;;;11.73;2.60;;;20.10;66.40;;;;;;4951980;28;20030;-76
2022/10/22 11:26:00;;;;;;;9.90;2.20;;;20.20;65.60;;;;;;4956207;28;20137;-75
2022/10/22 11:28:36;;;;;;;12.68;2.85;;;20.40;65.60;;;;;;4953850;28;20116;-77
2022/10/22 11:31:14;;;;;;;13.73;2.85;;;20.40;65.20;;;;;;4954246;28;20262;-74
2022/10/22 11:34:06;;;;;;;11.18;2.22;;;20.30;65.30;;;;;;4952805;28;20035;-76
2022/10/22 11:36:33;;;;;;;12.25;2.40;;;20.10;66.10;;;;;;4953221;28;20315;-75
2022/10/22 11:39:02;;;;;;;9.23;2.50;;;20.30;65.90;;;;;;4968152;28;20042;-78
2022/10/22 11:41:31;;;;;;;11.38;2.30;;;20.60;65.30;;;;;;4964237;28;20046;-76
2022/10/22 11:44:04;;;;;;;8.68;2.10;;;20.80;63.60;;;;;;4964690;28;20094;-77
2022/10/22 11:46:52;;;;;;;7.45;1.80;;;21.00;63.70;;;;;;4967736;28;20030;-76
2022/10/22 11:49:23;;;;;;;9.77;2.10;;;21.20;61.70;;;;;;4962334;28;20044;-75
2022/10/22 11:51:49;;;;;;;10.95;2.60;;;21.50;61.80;;;;;;4965166;28;20058;-76
2022/10/22 11:54:29;;;;;;;10.52;2.22;;;21.60;60.90;;;;;;4962957;28;20030;-76
2022/10/22 11:57:13;;;;;;;10.43;2.60;;;22.00;60.40;;;;;;4966737;28;20034;-77
2022/10/22 11:59:39;;;;;;;10.27;2.60;;;21.70;59.50;;;;;;4967654;28;20046;-76
2022/10/22 12:02:27;;;;;;;10.73;1.80;;;21.40;60.70;;;;;;4966297;28;20035;-76
2022/10/22 12:05:15;;;;;;;10.27;2.50;;;21.30;60.60;;;;;;4966525;28;20104;-77
2022/10/22 12:07:57;;;;;;;8.45;2.13;;;21.40;61.50;;;;;;4971662;28;20034;-78
2022/10/22 12:10:32;;;;;;;11.32;2.55;;;21.50;60.40;;;;;;4983643;28;20153;-78
2022/10/22 12:13:09;;;;;;;11.88;2.40;;;21.50;60.80;;;;;;4974468;28;20054;-77
2022/10/22 12:15:51;;;;;;;7.13;2.50;;;21.50;61.80;;;;;;4983530;28;20041;-75
2022/10/22 12:18:17;;;;;;;6.38;1.52;;;21.60;61.20;;;;;;4984649;28;20049;-76
2022/10/22 12:20:43;;;;;;;9.23;2.50;;;21.60;60.50;;;;;;4986103;28;20050;-76
2022/10/22 12:23:12;;;;;;;9.73;2.40;;;21.60;60.60;;;;;;4985513;28;20309;-76
2022/10/22 12:25:38;;;;;;;8.45;2.03;;;21.60;61.60;;;;;;4988946;28;20044;-74
2022/10/22 12:28:04;;;;;;;9.82;3.00;;;21.50;61.20;;;;;;4989738;28;20037;-76
2022/10/22 12:30:33;;;;;;;11.57;2.70;;;21.30;61.80;;;;;;4987965;28;20060;-77
2022/10/22 12:33:02;;;;;;;8.20;2.22;;;21.00;63.10;;;;;;4972354;28;20146;-77
2022/10/22 12:35:34;;;;;;;7.72;2.17;;;20.80;62.70;;;;;;4987260;28;20042;-76
2022/10/22 12:38:02;;;;;;;11.30;3.33;;;20.60;63.10;;;;;;4991309;28;20038;-78
2022/10/22 12:40:34;;;;;;;9.25;2.15;;;20.60;63.60;;;;;;4987597;28;20100;-77
2022/10/22 12:43:14;;;;;;;10.88;3.10;;;20.60;64.50;;;;;;4989785;28;20056;-76
2022/10/22 12:45:42;;;;;;;11.88;2.58;;;20.60;64.40;;;;;;4989487;28;20042;-77
2022/10/22 12:48:14;;;;;;;10.02;2.47;;;20.60;64.70;;;;;;4989999;28;20039;-74
2022/10/22 12:50:43;;;;;;;8.82;2.70;;;20.70;64.20;;;;;;4988689;28;20108;-77
2022/10/22 12:53:36;;;;;;;8.90;2.38;;;21.10;64.10;;;;;;4993330;28;20080;-76
2022/10/22 12:56:10;;;;;;;9.15;2.42;;;21.50;62.30;;;;;;5000554;28;20049;-76
2022/10/22 12:59:07;;;;;;;9.00;2.20;;;21.60;60.70;;;;;;4977883;28;20037;-76